Time;durP1;ratioP1;P1;durP2;ratioP2;P2;SDS_P1;SDS_P2;PMS_P1;PMS_P2;Temp;Humidity;BMP_temperature;BMP_pressure;BME280_temperature;BME280_humidity;BME280_pressure;Samples;Min_cycle;Max_cycle;Signal;HPM_P1;HPM_P2
2022/06/19 00:01:00;;;;;;;9.95;4.43;;;;;;;22.67;38.23;98984.19;5056857;28;20047;-80
2022/06/19 00:03:39;;;;;;;11.43;3.95;;;;;;;22.73;37.78;98982.38;5056771;28;20526;-80
2022/06/19 00:06:05;;;;;;;8.65;4.35;;;;;;;22.42;38.42;98983.81;5058093;28;20077;-80
2022/06/19 00:08:31;;;;;;;10.63;3.90;;;;;;;22.36;38.54;98982.13;5074067;28;20047;-80
2022/06/19 00:10:58;;;;;;;6.28;4.25;;;;;;;22.41;38.51;98979.50;5023824;28;20060;-80
2022/06/19 00:13:24;;;;;;;10.10;4.10;;;;;;;22.37;38.58;98975.63;5041331;28;20044;-80
2022/06/19 00:15:50;;;;;;;11.10;4.07;;;;;;;22.35;38.45;98968.84;5024886;28;20275;-80
2022/06/19 00:18:15;;;;;;;6.90;4.10;;;;;;;22.28;38.40;98962.81;5091791;28;20530;-80
2022/06/19 00:20:41;;;;;;;6.05;3.80;;;;;;;22.35;38.56;98968.84;5073209;28;20044;-81
2022/06/19 00:23:07;;;;;;;9.45;3.58;;;;;;;22.32;38.37;98964.75;5057307;28;20046;-80
2022/06/19 00:25:34;;;;;;;10.93;3.90;;;;;;;22.27;38.59;98961.16;5042988;28;20079;-79
2022/06/19 00:28:01;;;;;;;6.57;3.80;;;;;;;22.21;38.91;98964.84;5059170;28;20097;-79
2022/06/19 00:30:27;;;;;;;8.43;3.58;;;;;;;22.29;38.63;98959.03;5077032;28;20477;-80
2022/06/19 00:32:52;;;;;;;9.15;3.53;;;;;;;22.09;38.84;98962.25;5045134;28;20047;-79
2022/06/19 00:35:18;;;;;;;7.28;3.65;;;;;;;22.24;38.59;98957.06;5046558;28;20085;-79
2022/06/19 00:37:46;;;;;;;7.15;3.30;;;;;;;22.18;38.37;98920.19;5043449;28;20526;-80
2022/06/19 00:40:12;;;;;;;8.25;3.35;;;;;;;22.19;38.53;98946.16;5076398;28;20400;-80
2022/06/19 00:42:38;;;;;;;5.78;2.95;;;;;;;22.14;38.20;98934.47;5057982;28;20134;-79
2022/06/19 00:45:04;;;;;;;5.55;3.22;;;;;;;22.20;38.27;98947.81;5039973;28;20070;-80
2022/06/19 00:47:34;;;;;;;7.43;3.17;;;;;;;22.24;38.75;98957.06;5040176;28;20118;-80
2022/06/19 00:50:19;;;;;;;8.35;3.42;;;;;;;22.28;38.65;98957.41;5073366;28;20507;-80
2022/06/19 00:52:45;;;;;;;7.32;3.80;;;;;;;22.11;38.76;98957.41;5039690;28;20054;-80
2022/06/19 00:55:27;;;;;;;9.45;3.67;;;;;;;22.41;38.73;98949.72;5056440;28;20437;-80
2022/06/19 00:58:28;;;;;;;11.50;3.65;;;;;;;22.38;38.55;98950.22;5041095;28;20498;-80
2022/06/19 01:01:00;;;;;;;6.95;3.15;;;;;;;22.34;38.59;98943.66;5073016;28;20052;-80
2022/06/19 01:03:33;;;;;;;15.18;3.88;;;;;;;22.36;38.51;98938.81;5077597;28;20158;-81
2022/06/19 01:05:59;;;;;;;10.27;3.53;;;;;;;22.21;38.47;98940.50;5059680;28;20503;-80
2022/06/19 01:08:24;;;;;;;8.75;3.40;;;;;;;22.27;38.32;98931.38;5077190;28;20059;-80
2022/06/19 01:10:51;;;;;;;8.82;3.40;;;;;;;22.47;38.17;98947.91;5039612;28;20052;-80
2022/06/19 01:13:19;;;;;;;8.27;3.30;;;;;;;22.41;38.06;98938.06;5055772;28;20053;-80
2022/06/19 01:15:45;;;;;;;9.43;3.40;;;;;;;22.41;37.98;98947.03;5039521;28;20101;-81
2022/06/19 01:18:13;;;;;;;8.55;3.10;;;;;;;22.18;38.49;98944.53;5073011;28;20455;-81
2022/06/19 01:20:40;;;;;;;8.90;3.63;;;;;;;22.11;38.31;98908.72;5039795;28;20040;-80
2022/06/19 01:23:32;;;;;;;7.63;3.33;;;;;;;22.49;38.15;98933.06;5073114;28;20064;-80
2022/06/19 01:25:57;;;;;;;12.43;3.33;;;;;;;22.11;38.55;98934.97;5056171;28;20048;-80
2022/06/19 01:31:18;;;;;;;7.22;3.25;;;;;;;22.01;38.77;98924.81;5060051;28;20055;-80
2022/06/19 01:33:51;;;;;;;17.52;3.45;;;;;;;22.17;38.62;98917.75;5058004;28;20048;-80
2022/06/19 01:36:21;;;;;;;9.15;3.72;;;;;;;22.14;38.75;98929.06;5074936;28;20044;-80
2022/06/19 01:38:50;;;;;;;6.60;2.87;;;;;;;22.02;38.83;98917.53;5056250;28;20410;-80
2022/06/19 01:41:36;;;;;;;12.93;4.00;;;;;;;22.22;38.31;98921.31;5056781;28;20341;-80
2022/06/19 01:44:02;;;;;;;9.18;3.47;;;;;;;22.02;38.61;98925.66;5040092;28;20466;-81
2022/06/19 01:46:30;;;;;;;12.25;3.25;;;;;;;22.21;38.49;98930.50;5073372;28;20048;-80
2022/06/19 01:48:56;;;;;;;11.77;3.40;;;;;;;22.11;38.74;98934.97;5072781;28;20166;-81
2022/06/19 01:51:21;;;;;;;10.88;3.83;;;;;;;21.86;38.83;98900.28;5073628;28;20051;-81
2022/06/19 01:53:55;;;;;;;10.07;3.70;;;;;;;22.38;38.17;98925.88;5039489;28;20519;-80
2022/06/19 01:56:21;;;;;;;11.13;3.72;;;;;;;22.22;38.50;98934.03;5039756;28;20040;-81
2022/06/19 01:58:51;;;;;;;11.48;3.53;;;;;;;22.30;38.27;98925.47;5072770;28;20130;-83
2022/06/19 02:01:16;;;;;;;6.50;3.47;;;;;;;22.19;38.21;98927.22;5056541;28;20174;-82
2022/06/19 02:03:49;;;;;;;16.67;3.95;;;;;;;22.35;37.90;98917.44;5071702;28;20154;-81
2022/06/19 02:06:18;;;;;;;18.20;4.53;;;;;;;22.43;37.81;98901.59;5055542;28;20047;-80
2022/06/19 02:08:44;;;;;;;14.70;3.42;;;;;;;22.08;37.86;98884.88;5038041;28;20036;-81
2022/06/19 02:11:11;;;;;;;12.45;4.07;;;;;;;22.42;37.90;98916.19;5038204;28;20451;-80
2022/06/19 02:13:38;;;;;;;13.23;3.60;;;;;;;22.44;38.05;98919.47;5022419;28;20082;-79
2022/06/19 02:16:08;;;;;;;13.02;3.22;;;;;;;22.36;37.97;98914.47;5071667;28;20469;-80
2022/06/19 02:18:37;;;;;;;7.68;3.20;;;;;;;22.68;37.88;98926.28;5055677;28;20040;-80
2022/06/19 02:21:07;;;;;;;14.32;3.78;;;;;;;22.61;37.84;98914.84;5040115;28;20041;-78
2022/06/19 02:23:36;;;;;;;8.93;3.35;;;;;;;22.62;37.89;98907.50;5024044;28;20040;-79
2022/06/19 02:26:03;;;;;;;6.85;3.30;;;;;;;22.62;37.94;98899.38;5023566;28;20419;-79
2022/06/19 02:28:30;;;;;;;9.85;2.90;;;;;;;22.57;37.42;98902.06;5074319;28;20053;-78
2022/06/19 02:30:55;;;;;;;12.45;3.53;;;;;;;22.52;37.51;98904.69;5076447;28;20040;-79
2022/06/19 02:33:26;;;;;;;8.65;3.15;;;;;;;22.77;37.56;98918.53;5058849;28;20253;-80
2022/06/19 02:35:51;;;;;;;9.68;3.42;;;;;;;22.57;37.58;98900.16;5023432;28;20147;-78
2022/06/19 02:38:19;;;;;;;6.82;3.05;;;;;;;22.63;37.45;98901.03;5073973;28;20044;-79
2022/06/19 02:41:12;;;;;;;7.35;2.90;;;;;;;22.92;37.18;98905.16;5055804;28;20052;-79
2022/06/19 02:43:38;;;;;;;7.30;2.83;;;;;;;22.69;37.34;98906.28;5038335;28;20037;-79
2022/06/19 02:46:06;;;;;;;7.47;2.78;;;;;;;22.83;37.37;98903.97;5037842;28;20048;-80
2022/06/19 02:48:32;;;;;;;8.57;2.47;;;;;;;22.70;36.73;98875.41;5054116;28;20049;-80
2022/06/19 02:51:01;;;;;;;8.27;2.80;;;;;;;22.86;36.95;98898.84;5038348;28;20048;-79
2022/06/19 02:53:27;;;;;;;5.05;2.45;;;;;;;22.79;36.83;98895.53;5055532;28;20056;-79
2022/06/19 02:55:54;;;;;;;6.22;2.65;;;;;;;22.82;36.91;98900.44;5055883;28;20044;-78
2022/06/19 02:58:20;;;;;;;8.65;2.70;;;;;;;22.94;36.76;98894.91;5055178;28;20032;-80
2022/06/19 03:00:47;;;;;;;4.10;2.70;;;;;;;23.01;36.65;98899.03;5070488;28;20051;-78
2022/06/19 03:03:27;;;;;;;3.42;2.22;;;;;;;23.12;36.66;98895.34;5070817;28;20496;-79
2022/06/19 03:05:53;;;;;;;7.60;2.30;;;;;;;22.96;36.83;98879.19;5087103;28;20086;-80
2022/06/19 03:08:19;;;;;;;6.90;2.55;;;;;;;22.94;36.54;98879.44;5070802;28;20130;-80
2022/06/19 03:10:45;;;;;;;9.00;2.10;;;;;;;22.89;36.70;98884.00;5020995;28;20155;-80
2022/06/19 03:13:11;;;;;;;3.85;2.38;;;;;;;23.02;36.57;98887.13;5037237;28;20040;-79
2022/06/19 03:15:37;;;;;;;4.22;2.45;;;;;;;23.00;37.02;98891.97;5054617;28;20040;-80
2022/06/19 03:18:03;;;;;;;7.35;2.60;;;;;;;23.13;37.26;98874.47;5037980;28;20048;-80
2022/06/19 03:20:29;;;;;;;6.93;2.50;;;;;;;23.10;36.81;98892.09;5071832;28;20060;-79
2022/06/19 03:22:55;;;;;;;4.53;2.55;;;;;;;23.28;36.58;98880.91;5055645;28;20062;-80
2022/06/19 03:25:21;;;;;;;7.45;3.17;;;;;;;23.41;36.70;98865.28;5038470;28;20074;-80
2022/06/19 03:27:48;;;;;;;3.85;2.15;;;;;;;23.50;36.27;98869.97;5071027;28;20063;-80
2022/06/19 03:30:16;;;;;;;5.72;2.50;;;;;;;23.84;36.09;98867.75;5070540;28;20139;-80
2022/06/19 03:32:42;;;;;;;7.85;2.20;;;;;;;23.66;35.95;98865.47;5070716;28;20509;-79
2022/06/19 03:35:08;;;;;;;5.93;2.00;;;;;;;23.59;35.78;98852.13;5053956;28;20047;-80
2022/06/19 03:37:34;;;;;;;4.82;2.15;;;;;;;23.64;36.05;98859.47;5053678;28;20557;-80
2022/06/19 03:40:00;;;;;;;6.55;2.40;;;;;;;23.64;36.39;98856.78;5037038;28;20040;-79
2022/06/19 03:42:26;;;;;;;4.63;2.13;;;;;;;23.58;36.34;98855.09;5070186;28;20056;-78
2022/06/19 03:44:51;;;;;;;5.47;2.17;;;;;;;23.71;36.40;98854.66;5070113;28;20056;-80
2022/06/19 03:47:23;;;;;;;11.77;2.60;;;;;;;23.82;36.86;98856.38;5036845;28;20052;-80
2022/06/19 03:49:49;;;;;;;12.23;2.33;;;;;;;23.73;36.52;98837.03;5036975;28;20554;-79
2022/06/19 03:52:15;;;;;;;6.38;2.08;;;;;;;23.53;36.77;98820.66;5071165;28;20048;-80
2022/06/19 03:54:41;;;;;;;2.55;2.10;;;;;;;23.77;36.46;98834.63;5054339;28;20527;-81
2022/06/19 03:57:06;;;;;;;4.35;2.30;;;;;;;23.72;36.44;98848.97;5036889;28;20040;-81
2022/06/19 03:59:35;;;;;;;4.78;2.15;;;;;;;23.93;36.66;98839.06;5054335;28;20040;-80
2022/06/19 04:02:02;;;;;;;4.65;2.30;;;;;;;23.67;37.23;98842.69;5054478;28;20048;-81
2022/06/19 04:04:27;;;;;;;4.50;2.03;;;;;;;23.83;37.17;98844.44;5038414;28;20043;-82
2022/06/19 04:06:53;;;;;;;5.22;2.03;;;;;;;23.96;37.36;98838.56;5038296;28;20037;-81
2022/06/19 04:09:19;;;;;;;6.13;2.00;;;;;;;24.16;37.18;98830.50;5038537;28;20041;-81
2022/06/19 04:11:46;;;;;;;8.05;2.10;;;;;;;24.30;36.03;98831.66;5022934;28;20374;-81
2022/06/19 04:14:12;;;;;;;3.72;2.03;;;;;;;24.59;36.26;98819.25;5072226;28;20060;-81
2022/06/19 04:16:38;;;;;;;3.47;2.10;;;;;;;24.70;35.41;98816.34;5037736;28;20044;-80
2022/06/19 04:19:06;;;;;;;8.85;2.00;;;;;;;24.78;34.67;98801.41;5037138;28;20059;-81
2022/06/19 04:21:35;;;;;;;6.25;1.80;;;;;;;25.09;34.59;98811.25;5070534;28;20041;-81
2022/06/19 04:24:04;;;;;;;3.08;2.00;;;;;;;25.18;34.06;98804.16;5037124;28;20044;-81
2022/06/19 04:26:33;;;;;;;6.05;2.00;;;;;;;25.41;33.50;98813.69;5070005;28;20416;-81
2022/06/19 04:28:59;;;;;;;4.70;1.67;;;;;;;25.15;33.58;98782.97;5071903;28;20029;-82
2022/06/19 04:31:25;;;;;;;4.18;1.70;;;;;;;25.34;33.46;98805.81;5038100;28;20127;-81
2022/06/19 04:33:51;;;;;;;5.60;2.03;;;;;;;25.73;32.50;98812.28;5056935;28;20048;-82
2022/06/19 04:36:19;;;;;;;3.15;1.60;;;;;;;25.91;32.57;98799.97;5076400;28;20040;-83
2022/06/19 04:38:47;;;;;;;7.13;1.60;;;;;;;25.77;32.68;98802.47;5091620;28;20048;-80
2022/06/19 04:41:18;;;;;;;6.72;2.00;;;;;;;25.93;32.13;98797.81;5024743;28;20079;-80
2022/06/19 04:43:44;;;;;;;2.38;1.77;;;;;;;25.90;31.95;98799.19;5057171;28;20047;-78
2022/06/19 04:46:10;;;;;;;4.40;1.70;;;;;;;26.08;31.60;98798.59;5023578;28;20044;-76
2022/06/19 04:48:37;;;;;;;4.68;1.90;;;;;;;26.05;31.37;98787.44;5057650;28;20044;-80
2022/06/19 04:51:03;;;;;;;4.55;1.80;;;;;;;26.41;31.32;98789.75;5074505;28;20040;-79
2022/06/19 04:53:29;;;;;;;4.68;1.60;;;;;;;26.19;31.82;98797.47;5040007;28;20101;-79
2022/06/19 04:55:55;;;;;;;3.90;1.75;;;;;;;26.20;31.67;98799.09;5040293;28;20048;-80
2022/06/19 04:58:22;;;;;;;10.23;1.92;;;;;;;26.44;31.53;98789.19;5073966;28;20068;-80
2022/06/19 05:00:49;;;;;;;2.67;1.60;;;;;;;26.42;31.32;98793.25;5073856;28;20170;-80
2022/06/19 05:03:16;;;;;;;7.72;1.58;;;;;;;26.22;31.69;98788.75;5074137;28;20041;-80
2022/06/19 05:05:42;;;;;;;5.03;1.60;;;;;;;26.34;31.28;98786.50;5073735;28;20127;-80
2022/06/19 05:08:08;;;;;;;5.20;1.90;;;;;;;26.26;31.61;98784.34;5056981;28;20102;-81
2022/06/19 05:10:34;;;;;;;6.63;1.70;;;;;;;26.43;31.85;98786.75;5056939;28;20060;-80
2022/06/19 05:13:00;;;;;;;5.05;1.80;;;;;;;26.56;30.93;98782.56;5056094;28;20048;-80
2022/06/19 05:15:26;;;;;;;3.80;1.80;;;;;;;26.59;31.37;98771.91;5056394;28;20049;-81
2022/06/19 05:17:51;;;;;;;6.13;1.98;;;;;;;26.66;31.51;98777.91;5039301;28;20041;-80
2022/06/19 05:20:18;;;;;;;6.03;1.50;;;;;;;26.78;31.71;98774.81;5023019;28;20090;-80
2022/06/19 05:22:44;;;;;;;7.57;1.80;;;;;;;26.33;32.25;98757.66;5073158;28;20076;-80
2022/06/19 05:25:10;;;;;;;8.00;2.00;;;;;;;27.10;31.39;98775.09;5073604;28;20135;-79
2022/06/19 05:27:39;;;;;;;3.30;1.80;;;;;;;26.98;31.58;98789.13;5057332;28;20044;-80
2022/06/19 05:30:07;;;;;;;3.75;1.65;;;;;;;27.11;31.64;98771.31;5072697;28;20045;-80
2022/06/19 05:32:35;;;;;;;4.03;2.00;;;;;;;27.14;31.09;98795.28;5039637;28;20051;-80
2022/06/19 05:35:01;;;;;;;6.68;1.63;;;;;;;26.98;30.69;98793.75;5056939;28;20067;-80
2022/06/19 05:37:26;;;;;;;2.97;1.60;;;;;;;26.55;30.93;98779.03;5024517;28;20492;-80
2022/06/19 05:39:52;;;;;;;2.65;1.77;;;;;;;26.12;31.58;98772.44;5023714;28;20051;-79
2022/06/19 05:42:18;;;;;;;8.20;2.30;;;;;;;26.56;31.12;98791.53;5073680;28;20051;-79
2022/06/19 05:44:44;;;;;;;8.75;2.20;;;;;;;26.28;31.64;98787.63;5021933;28;20093;-79
2022/06/19 05:47:09;;;;;;;4.70;1.60;;;;;;;26.36;31.44;98776.16;5056949;28;20573;-80
2022/06/19 05:49:36;;;;;;;1.80;1.50;;;;;;;25.76;32.14;98780.97;5023302;28;20048;-80
2022/06/19 05:52:03;;;;;;;3.72;1.60;;;;;;;26.74;31.32;98780.00;5039830;28;20377;-80
2022/06/19 05:54:29;;;;;;;8.32;2.22;;;;;;;26.61;30.89;98767.00;5072774;28;20569;-79
2022/06/19 05:56:55;;;;;;;3.97;2.13;;;;;;;26.90;31.20;98775.28;5073718;28;20118;-79
2022/06/19 05:59:21;;;;;;;5.50;2.10;;;;;;;26.34;32.07;98762.00;5054266;28;20492;-79
2022/06/19 06:01:47;;;;;;;8.55;2.08;;;;;;;26.82;31.43;98765.78;5064417;28;20043;-79
2022/06/19 06:04:13;;;;;;;9.30;1.80;;;;;;;26.92;31.04;98748.56;5051678;28;20041;-80
2022/06/19 06:06:40;;;;;;;4.82;2.15;;;;;;;27.43;30.88;98752.50;5022531;28;20044;-81
2022/06/19 06:09:06;;;;;;;6.82;1.70;;;;;;;27.68;30.21;98761.22;5055341;28;20429;-81
2022/06/19 06:11:33;;;;;;;3.25;1.67;;;;;;;27.59;30.13;98756.66;5038895;28;20059;-80
2022/06/19 06:13:58;;;;;;;3.75;1.60;;;;;;;27.62;30.24;98756.09;5039116;28;20044;-81
2022/06/19 06:16:27;;;;;;;4.20;1.50;;;;;;;27.41;30.40;98758.22;5038267;28;20131;-82
2022/06/19 06:18:52;;;;;;;3.63;1.90;;;;;;;26.91;31.27;98744.22;5071464;28;20041;-81
2022/06/19 06:21:23;;;;;;;6.25;1.80;;;;;;;27.58;30.90;98761.34;5055505;28;20058;-81
2022/06/19 06:23:49;;;;;;;11.18;2.15;;;;;;;28.08;30.46;98753.69;5022823;28;20144;-81
2022/06/19 06:26:18;;;;;;;3.55;1.65;;;;;;;27.89;30.47;98750.91;5056321;28;20586;-80
2022/06/19 06:28:48;;;;;;;6.97;1.90;;;;;;;28.59;29.65;98746.44;5055036;28;20123;-79
2022/06/19 06:31:14;;;;;;;;;;;;;;;28.75;29.02;98745.09;5071785;28;20146;-80
2022/06/19 06:33:40;;;;;;;9.40;2.00;;;;;;;27.85;30.15;98747.09;5070781;28;19920;-81
2022/06/19 06:36:06;;;;;;;3.28;1.63;;;;;;;28.46;29.52;98734.28;5021715;28;20040;-80
2022/06/19 06:38:32;;;;;;;5.55;1.65;;;;;;;27.95;30.04;98717.00;5054396;28;20102;-78
2022/06/19 06:40:58;;;;;;;4.40;1.63;;;;;;;28.46;29.77;98717.88;5021946;28;20040;-81
2022/06/19 06:43:24;;;;;;;3.03;1.70;;;;;;;29.08;29.28;98720.22;5056442;28;20051;-80
2022/06/19 06:45:51;;;;;;;2.85;1.58;;;;;;;28.47;29.85;98718.75;5055293;28;20142;-80
2022/06/19 06:48:18;;;;;;;4.18;1.50;;;;;;;28.61;29.62;98720.44;5055462;28;20098;-81
2022/06/19 06:50:44;;;;;;;7.60;1.60;;;;;;;28.73;29.36;98719.97;5055624;28;20488;-80
2022/06/19 06:53:10;;;;;;;5.78;1.58;;;;;;;28.62;30.05;98713.03;5038122;28;20119;-81
2022/06/19 06:55:41;;;;;;;6.40;2.13;;;;;;;28.59;29.77;98717.19;5037221;28;20098;-81
2022/06/19 06:58:07;;;;;;;4.95;1.95;;;;;;;28.67;30.29;98712.97;5070845;28;20055;-81
2022/06/19 07:00:33;;;;;;;7.75;1.73;;;;;;;28.31;30.05;98682.63;5021310;28;20048;-80
2022/06/19 07:02:59;;;;;;;4.38;1.70;;;;;;;28.14;30.25;98706.09;5071621;28;20422;-80
2022/06/19 07:05:26;;;;;;;8.07;1.70;;;;;;;28.26;30.34;98699.09;5054483;28;20068;-81
2022/06/19 07:07:52;;;;;;;4.78;1.40;;;;;;;28.10;30.34;98707.78;5073683;28;20036;-79
2022/06/19 07:10:19;;;;;;;4.53;1.58;;;;;;;27.91;30.90;98696.81;5038030;28;20474;-81
2022/06/19 07:12:46;;;;;;;3.72;1.55;;;;;;;28.20;30.62;98694.00;5054877;28;20150;-80
2022/06/19 07:15:12;;;;;;;3.60;1.50;;;;;;;26.89;32.72;98691.91;5055040;28;20411;-81
2022/06/19 07:17:38;;;;;;;5.05;1.60;;;;;;;27.11;32.93;98679.41;5024268;28;20140;-82
2022/06/19 07:20:05;;;;;;;7.10;1.70;;;;;;;27.13;32.14;98660.88;5072287;28;20070;-81
2022/06/19 07:22:30;;;;;;;4.45;1.40;;;;;;;27.36;31.23;98697.47;5072447;28;20482;-81
2022/06/19 07:24:56;;;;;;;6.55;1.80;;;;;;;27.60;31.30;98663.63;5039587;28;20080;-83
2022/06/19 07:27:22;;;;;;;5.82;1.60;;;;;;;27.99;31.24;98701.63;5055996;28;20625;-81
2022/06/19 07:29:48;;;;;;;10.68;1.63;;;;;;;27.90;31.18;98685.13;5037069;28;20052;-81
2022/06/19 07:32:15;;;;;;;7.93;1.50;;;;;;;27.74;30.75;98689.09;5021087;28;20404;-82
2022/06/19 07:34:42;;;;;;;5.53;1.70;;;;;;;28.10;30.01;98664.09;5055665;28;20047;-82
2022/06/19 07:37:10;;;;;;;2.65;1.30;;;;;;;29.20;28.84;98681.47;5058926;28;20519;-82
2022/06/19 07:39:38;;;;;;;3.07;1.30;;;;;;;29.61;27.14;98672.16;5073828;28;20052;-81
2022/06/19 07:42:08;;;;;;;2.13;1.00;;;;;;;28.94;27.23;98658.38;5055680;28;20095;-82
2022/06/19 07:44:40;;;;;;;3.50;1.13;;;;;;;28.66;28.49;98643.03;5022214;28;20496;-82
2022/06/19 07:50:16;;;;;;;4.30;1.30;;;;;;;29.28;27.73;98647.94;5057511;28;20044;-81
2022/06/19 07:52:42;;;;;;;9.50;1.50;;;;;;;29.60;27.21;98678.75;5058060;28;20086;-82
2022/06/19 07:55:10;;;;;;;6.97;1.30;;;;;;;29.28;27.24;98642.47;5057076;28;20044;-81
2022/06/19 07:57:37;;;;;;;8.55;2.17;;;;;;;28.83;28.23;98603.09;5073742;28;20055;-81
2022/06/19 08:00:05;;;;;;;2.33;1.13;;;;;;;29.19;27.86;98634.16;5055760;28;20048;-81
2022/06/19 08:02:32;;;;;;;3.95;1.30;;;;;;;29.84;27.21;98655.84;5054391;28;20044;-82
2022/06/19 08:04:58;;;;;;;7.85;1.40;;;;;;;30.66;25.79;98630.66;5021607;28;20049;-82
2022/06/19 08:07:28;;;;;;;6.30;1.35;;;;;;;31.20;25.07;98632.25;5023388;28;20052;-82
2022/06/19 08:09:54;;;;;;;4.63;1.40;;;;;;;30.25;25.62;98642.91;5029646;28;20443;-82
2022/06/19 08:12:20;;;;;;;5.00;1.50;;;;;;;29.87;26.68;98647.84;5031258;28;20097;-82
2022/06/19 08:14:46;;;;;;;7.95;2.50;;;;;;;30.89;26.36;98635.00;5029624;28;20044;-81
2022/06/19 08:17:14;;;;;;;6.80;1.98;;;;;;;32.41;23.92;98659.78;5031393;28;20394;-81
2022/06/19 08:19:40;;;;;;;8.15;1.83;;;;;;;33.44;22.83;98608.09;5045968;28;20083;-82
2022/06/19 08:22:06;;;;;;;4.40;2.08;;;;;;;34.34;21.48;98628.59;5044943;28;20428;-82
2022/06/19 08:24:36;;;;;;;4.22;1.50;;;;;;;34.56;21.23;98628.25;5045837;28;20130;-82
2022/06/19 08:27:08;;;;;;;3.80;1.40;;;;;;;33.92;21.29;98614.00;5081057;28;20492;-83
2022/06/19 08:29:34;;;;;;;8.85;1.27;;;;;;;32.98;21.45;98641.94;5031285;28;20494;-82
2022/06/19 08:32:01;;;;;;;9.07;1.60;;;;;;;34.09;21.27;98600.09;5064950;28;20047;-82
2022/06/19 08:34:28;;;;;;;4.90;1.30;;;;;;;35.03;19.89;98588.97;5065920;28;20469;-82
2022/06/19 08:36:54;;;;;;;4.50;1.58;;;;;;;35.58;19.45;98608.59;5046380;28;20059;-83
2022/06/19 08:39:21;;;;;;;9.35;1.80;;;;;;;36.43;18.69;98619.56;5030859;28;20073;-83
2022/06/19 08:42:00;;;;;;;6.72;1.40;;;;;;;37.33;18.00;98601.06;5044348;28;20046;-82
2022/06/19 08:44:47;;;;;;;4.40;1.65;;;;;;;38.00;16.62;98597.13;5079213;28;20067;-82
2022/06/19 08:47:28;;;;;;;7.60;1.40;;;;;;;38.93;15.73;98557.00;5044774;28;20097;-82
2022/06/19 08:50:13;;;;;;;3.47;1.15;;;;;;;38.29;15.28;98535.56;5060262;28;20569;-82
2022/06/19 08:52:45;;;;;;;5.00;1.45;;;;;;;36.93;16.90;98567.19;5061608;28;20046;-82
2022/06/19 08:55:45;;;;;;;4.05;1.08;;;;;;;39.47;15.12;98590.94;5062034;28;20044;-84
2022/06/19 08:58:20;;;;;;;8.30;1.40;;;;;;;41.07;13.74;98576.72;5061552;28;20514;-82
2022/06/19 09:01:09;;;;;;;3.85;1.40;;;;;;;40.76;13.74;98561.31;5061360;28;20048;-84
2022/06/19 09:06:57;;;;;;;5.88;1.50;;;;;;;37.51;17.09;98557.97;5063734;28;20036;-82
2022/06/19 09:09:47;;;;;;;9.65;1.92;;;;;;;36.50;17.99;98575.47;5077837;28;20455;-83
2022/06/19 09:12:39;;;;;;;5.13;1.20;;;;;;;36.29;18.24;98542.47;5061726;28;20044;-82
2022/06/19 09:15:15;;;;;;;2.85;1.20;;;;;;;37.95;16.90;98531.66;5058718;28;20111;-83
2022/06/19 09:18:01;;;;;;;6.88;1.25;;;;;;;38.83;15.84;98546.53;5079407;28;20032;-82
2022/06/19 09:20:50;;;;;;;3.05;1.30;;;;;;;38.33;16.32;98515.06;5065362;28;20109;-82
2022/06/19 09:23:37;;;;;;;5.68;2.00;;;;;;;37.61;16.88;98562.16;5065630;28;20181;-82
2022/06/19 09:26:13;;;;;;;6.75;1.70;;;;;;;36.29;18.29;98527.84;5080461;28;20151;-82
2022/06/19 09:29:02;;;;;;;7.30;1.60;;;;;;;35.34;19.46;98513.88;5061641;28;20052;-82
2022/06/19 09:32:02;;;;;;;3.45;1.75;;;;;;;35.33;19.53;98517.78;5027991;28;20044;-82
2022/06/19 09:34:31;;;;;;;3.63;1.30;;;;;;;35.44;19.91;98481.09;5079188;28;20051;-81
2022/06/19 09:37:23;;;;;;;9.85;2.80;;;;;;;35.22;19.76;98520.22;5067751;28;20127;-81
2022/06/19 09:40:08;;;;;;;6.72;1.33;;;;;;;33.92;20.66;98499.06;5049000;28;20093;-81
2022/06/19 09:42:38;;;;;;;2.20;1.30;;;;;;;33.85;21.65;98496.03;5058028;28;20040;-82
2022/06/19 09:45:06;;;;;;;;;;;;;;;33.59;21.55;98481.66;5093691;28;20114;-82
2022/06/19 09:47:59;;;;;;;5.15;2.00;;;;;;;32.68;22.65;98476.00;5042640;28;19991;-81
2022/06/19 09:50:33;;;;;;;3.70;1.50;;;;;;;32.07;23.34;98468.22;5076916;28;20044;-81
2022/06/19 09:53:10;;;;;;;6.03;1.60;;;;;;;32.17;23.26;98462.38;5054428;28;20525;-81
2022/06/19 09:55:46;;;;;;;5.47;1.30;;;;;;;30.89;25.01;98445.00;5035976;28;20528;-81
2022/06/19 09:58:36;;;;;;;9.30;1.90;;;;;;;30.84;25.05;98456.13;5084192;28;20043;-82
2022/06/19 10:01:03;;;;;;;7.28;1.85;;;;;;;30.25;25.24;98456.63;5029476;28;20048;-81
2022/06/19 10:03:54;;;;;;;4.57;2.20;;;;;;;31.24;24.64;98476.88;5080182;28;20070;-82
2022/06/19 10:06:25;;;;;;;9.13;1.77;;;;;;;31.56;24.24;98439.94;5062859;28;20075;-82
2022/06/19 10:09:14;;;;;;;6.45;2.20;;;;;;;32.53;23.06;98446.31;5063035;28;20044;-82
2022/06/19 10:11:41;;;;;;;5.60;1.55;;;;;;;33.57;21.53;98470.19;5046345;28;20063;-82
2022/06/19 10:14:15;;;;;;;4.63;1.73;;;;;;;32.94;21.63;98425.59;5062773;28;20047;-83
2022/06/19 10:16:57;;;;;;;6.05;1.67;;;;;;;34.23;20.96;98444.31;5031183;28;20044;-82
2022/06/19 10:19:31;;;;;;;7.10;1.75;;;;;;;33.98;20.84;98417.03;5081559;28;20482;-83
2022/06/19 10:22:23;;;;;;;5.00;1.50;;;;;;;33.89;21.29;98414.34;5063265;28;20044;-81
2022/06/19 10:25:02;;;;;;;8.60;1.70;;;;;;;32.00;23.37;98418.44;5062555;28;20059;-82
2022/06/19 10:27:38;;;;;;;5.50;1.50;;;;;;;31.19;24.37;98389.22;5062616;28;20040;-82
2022/06/19 10:30:07;;;;;;;9.70;2.25;;;;;;;32.39;23.63;98403.66;5061813;28;20054;-82
2022/06/19 10:32:35;;;;;;;9.02;1.70;;;;;;;32.47;23.06;98387.16;5060062;28;20135;-82
2022/06/19 10:35:24;;;;;;;5.93;1.52;;;;;;;32.09;23.57;98410.22;5059046;28;20048;-82
2022/06/19 10:38:12;;;;;;;11.10;2.22;;;;;;;33.11;22.63;98411.69;5030610;28;20048;-82
2022/06/19 10:41:05;;;;;;;6.10;1.60;;;;;;;33.61;21.71;98448.28;5076220;28;20039;-82
2022/06/19 10:43:52;;;;;;;6.18;1.80;;;;;;;33.78;21.09;98396.59;5059377;28;20086;-81
2022/06/19 10:46:18;;;;;;;5.53;1.80;;;;;;;34.03;21.23;98375.44;5059578;28;20522;-82
2022/06/19 10:48:57;;;;;;;8.77;1.80;;;;;;;34.01;21.54;98364.78;5028114;28;20040;-81
2022/06/19 10:51:44;;;;;;;3.58;1.58;;;;;;;33.16;22.32;98346.28;5045331;28;20043;-82
2022/06/19 10:54:30;;;;;;;8.05;1.67;;;;;;;33.46;21.51;98380.06;5058397;28;20050;-82
2022/06/19 10:56:58;;;;;;;3.75;1.70;;;;;;;33.01;22.43;98370.84;5092508;28;20391;-81
2022/06/19 10:59:25;;;;;;;11.57;2.05;;;;;;;32.32;24.10;98357.41;5059225;28;20055;-81
2022/06/19 11:05:29;;;;;;;5.95;1.83;;;;;;;32.94;23.56;98376.84;5033037;28;20083;-81
2022/06/19 11:07:54;;;;;;;10.52;1.60;;;;;;;32.51;23.53;98338.59;5059411;28;20079;-81
2022/06/19 11:10:32;;;;;;;12.68;1.73;;;;;;;31.70;24.69;98271.19;5042682;28;20047;-81
2022/06/19 11:13:01;;;;;;;3.92;2.08;;;;;;;31.76;25.01;98354.19;5043039;28;20047;-81
2022/06/19 11:15:33;;;;;;;5.97;1.80;;;;;;;31.59;25.42;98319.34;5026162;28;20035;-82
2022/06/19 11:18:44;;;;;;;9.32;1.50;;;;;;;31.11;26.05;98335.16;5043054;28;20097;-82
2022/06/19 11:21:13;;;;;;;9.00;2.03;;;;;;;30.54;27.48;98328.13;4989546;28;20044;-81
2022/06/19 11:23:51;;;;;;;12.45;2.10;;;;;;;31.17;26.83;98347.59;5059566;28;20044;-81
2022/06/19 11:26:26;;;;;;;8.18;1.90;;;;;;;30.51;27.77;98361.63;5061265;28;20052;-81
2022/06/19 11:28:57;;;;;;;17.50;1.92;;;;;;;30.23;27.20;98338.34;5061421;28;20086;-81
2022/06/19 11:31:28;;;;;;;6.57;1.70;;;;;;;30.97;26.53;98365.50;5059769;28;20519;-82
2022/06/19 11:33:59;;;;;;;6.35;1.65;;;;;;;31.06;26.25;98343.56;5059392;28;20047;-82
2022/06/19 11:36:35;;;;;;;4.88;1.77;;;;;;;30.74;26.74;98346.69;5058888;28;20508;-80
2022/06/19 11:39:37;;;;;;;4.50;1.65;;;;;;;31.09;26.80;98327.25;5041977;28;20044;-79
2022/06/19 11:42:37;;;;;;;6.63;2.00;;;;;;;30.89;26.60;98341.59;5040783;28;20097;-80
2022/06/19 11:45:23;;;;;;;7.97;2.10;;;;;;;30.61;27.17;98362.19;5058936;28;20200;-81
2022/06/19 11:47:55;;;;;;;5.85;1.73;;;;;;;30.19;27.99;98309.94;5024897;28;20213;-81
2022/06/19 11:50:32;;;;;;;5.15;1.92;;;;;;;30.24;28.41;98359.94;5040746;28;20040;-81
2022/06/19 11:53:11;;;;;;;18.75;2.00;;;;;;;30.22;28.80;98361.38;5057851;28;20567;-81
2022/06/19 11:55:41;;;;;;;9.00;2.00;;;;;;;30.40;28.55;98357.59;5080898;28;20067;-81
2022/06/19 11:58:30;;;;;;;11.25;1.88;;;;;;;30.32;28.43;98367.38;5043722;28;20282;-81
2022/06/19 12:01:10;;;;;;;20.90;2.45;;;;;;;30.35;28.84;98366.78;5074595;28;20054;-81